الصفحة الرئيسية
METAR-TAF:

METAR-TAF

مطار :

Rock Springs - Sweetwater County Airport

Rock Springs, وايومنغ, الولايات المتحدة

دائرة عرض: 41-35-39N, خط طول: 109-03-55W, ارتفاع: 2060 متر

مراقبة الطقس الحالي

تاريخ ووقت الإصدار 35 دقيقة قبل الساعة 11:54UTC
رياح هادئة
درجة الحرارة 11°درجة مئوية
الرطوبة 58%
ضغط 1023 hPa
الرؤية: 16.1 كم
سماء صافية

METAR: KRKS 151154Z AUTO 00000KT 10SM CLR 11/03 A3020 RMK AO2 SLP141 T01110028 10167 20106 53002

زمن: 06:29 (12:29 UTC)

توقعات

تاريخ ووقت الإصدار 1ساعة و 9 دقيقة قبل الساعة 11:20UTC
التوقعات صالحة من15 الساعة 12 UTC إلى 16 الساعة 12 UTC
ريح 6 عقدةمن اتجاهات متغيرة
الرؤية: 10 كم
سماء صافية
من 15 الساعة 1800 UTC
ريح 14 عقدة من الغرب تتزايد حتى 22 عقدة
الرؤية: 10 كم
سماء صافية
من 16 الساعة 0200 UTC
ريح 8 عقدة من الغرب/الشمال الغربي
الرؤية: 10 كم
سماء صافية
من 16 الساعة 0600 UTC
ريح 5 عقدةمن اتجاهات متغيرة
الرؤية: 10 كم
سماء صافية

TAF: KRKS 151120Z 1512/1612 VRB06KT P6SM SKC FM151800 28014G22KT P6SM SKC FM160200 29008KT P6SM SKC FM160600 VRB05KT P6SM SKC

أرصاد الطقس والتوقعات من أكثر من 4000 مطار (تقارير الطقس للمطار METAR والتنبؤ بالطقس بالمطارTAF).

المحطات المتاحة هي النقط الصفراء والحمراء على الخريطة.

حرك المؤشر فوق النقطة لمعرفة اسم المحطة.

ثم انقر لمعرفة أرصاد وتوقعات الطقس.

لتغيير الخارطة: اضغط على الأزرار الخضراء مع رمز الصليب الأسود للتكبير. على الزر الأخضر مع شرطة للتصغير، أو على الأسهم الخضراء للخرائط المجاورة.


METAR-TAF: